createdAt,value
2019-05-09T00:01:35.423Z,73.50
2019-05-09T00:04:05.213Z,73.90
2019-05-09T00:06:34.781Z,73.50
2019-05-09T00:09:05.511Z,73.70
2019-05-09T00:11:35.343Z,73.50
2019-05-09T00:14:05.288Z,73.30
2019-05-09T00:16:35.163Z,73.70
2019-05-09T00:19:04.732Z,73.10
2019-05-09T00:21:39.808Z,73.10
2019-05-09T00:24:09.476Z,72.70
2019-05-09T00:26:39.174Z,72.30
2019-05-09T00:29:14.441Z,71.90
2019-05-09T00:31:59.075Z,71.90
2019-05-09T00:34:38.216Z,71.40
2019-05-09T00:37:07.850Z,71.30
2019-05-09T00:39:37.443Z,71.10
2019-05-09T00:42:07.351Z,70.70
2019-05-09T00:44:38.796Z,70.80
2019-05-09T00:47:27.300Z,70.20
2019-05-09T00:49:56.912Z,69.60
2019-05-09T00:52:27.070Z,69.40
2019-05-09T00:54:58.748Z,69.10
2019-05-09T00:57:36.745Z,68.00
2019-05-09T01:00:17.516Z,68.80
2019-05-09T01:02:47.177Z,68.00
2019-05-09T01:05:16.839Z,68.40
2019-05-09T01:07:46.648Z,67.80
2019-05-09T01:10:16.649Z,67.20
2019-05-09T01:12:46.600Z,66.80
2019-05-09T01:15:16.944Z,66.00
2019-05-09T01:17:49.501Z,66.20
2019-05-09T01:20:19.366Z,65.50
2019-05-09T01:22:48.984Z,65.50
2019-05-09T01:25:18.779Z,64.90
2019-05-09T01:27:48.331Z,64.30
2019-05-09T01:30:18.080Z,64.10
2019-05-09T01:33:03.643Z,62.80
2019-05-09T01:35:33.991Z,62.60
2019-05-09T01:38:03.793Z,62.10
2019-05-09T01:40:33.741Z,62.00
2019-05-09T01:43:04.461Z,61.80
2019-05-09T01:45:34.402Z,61.80
2019-05-09T01:48:03.915Z,60.70
2019-05-09T01:50:34.155Z,60.60
2019-05-09T01:53:04.085Z,60.80
2019-05-09T01:55:51.376Z,61.00
2019-05-09T01:58:23.126Z,60.70
2019-05-09T02:00:54.048Z,61.30
2019-05-09T02:03:23.456Z,61.50
2019-05-09T02:05:53.261Z,61.70
2019-05-09T02:08:23.609Z,61.60
2019-05-09T02:10:54.202Z,62.20
2019-05-09T02:13:24.258Z,61.80
2019-05-09T02:16:24.688Z,62.50
2019-05-09T02:19:00.110Z,62.60
2019-05-09T02:21:29.748Z,63.10
2019-05-09T02:23:59.347Z,63.30
2019-05-09T02:26:28.902Z,63.20
2019-05-09T02:28:58.506Z,63.50
2019-05-09T02:31:28.073Z,63.30
2019-05-09T02:33:58.254Z,63.20
2019-05-09T02:36:29.526Z,63.80
2019-05-09T02:38:59.425Z,64.10
2019-05-09T02:41:28.956Z,64.60
2019-05-09T02:43:58.773Z,64.40
2019-05-09T02:46:50.988Z,64.60
2019-05-09T02:49:20.613Z,64.50
2019-05-09T02:51:50.215Z,64.40
2019-05-09T02:54:20.097Z,64.20
2019-05-09T02:56:49.659Z,63.90
2019-05-09T02:59:31.736Z,63.90
2019-05-09T03:02:29.317Z,63.20
2019-05-09T03:04:58.964Z,63.40
2019-05-09T03:07:48.708Z,63.30
2019-05-09T03:10:19.344Z,63.30
2019-05-09T03:12:50.321Z,63.30
2019-05-09T03:15:20.548Z,63.00
2019-05-09T03:17:50.238Z,63.50
2019-05-09T03:20:51.150Z,63.60
2019-05-09T03:23:20.723Z,63.60
2019-05-09T03:25:50.364Z,63.40
2019-05-09T03:28:30.991Z,63.30
2019-05-09T03:31:01.648Z,63.20
2019-05-09T03:33:35.447Z,62.70
2019-05-09T03:36:02.787Z,62.90
2019-05-09T03:38:32.390Z,62.90
2019-05-09T03:41:02.048Z,62.90
2019-05-09T03:43:31.837Z,63.00
2019-05-09T03:46:08.324Z,63.10
2019-05-09T03:48:42.970Z,62.60
2019-05-09T03:51:12.618Z,62.50
2019-05-09T03:53:42.184Z,62.00
2019-05-09T03:56:13.845Z,62.60
2019-05-09T03:58:43.407Z,62.30
2019-05-09T04:01:13.057Z,62.70
2019-05-09T04:03:42.615Z,62.40
2019-05-09T04:06:12.522Z,62.00
2019-05-09T04:08:42.040Z,61.90
2019-05-09T04:11:11.978Z,61.40
2019-05-09T04:13:48.111Z,60.50
2019-05-09T04:16:19.198Z,60.50
2019-05-09T04:18:49.858Z,60.20
2019-05-09T04:21:19.412Z,60.50
2019-05-09T04:23:49.083Z,60.50
2019-05-09T04:26:38.148Z,60.40
2019-05-09T04:29:08.133Z,60.50
2019-05-09T04:31:38.359Z,60.30
2019-05-09T04:34:09.857Z,59.90
2019-05-09T04:36:39.839Z,60.00
2019-05-09T04:39:12.716Z,59.70
2019-05-09T04:41:42.372Z,59.40
2019-05-09T04:44:28.890Z,58.60
2019-05-09T04:46:59.872Z,58.20
2019-05-09T04:49:30.165Z,58.20
2019-05-09T04:52:01.092Z,57.90
2019-05-09T04:54:30.711Z,57.00
2019-05-09T04:57:00.304Z,56.90
2019-05-09T04:59:30.192Z,55.70
2019-05-09T05:02:11.080Z,54.80
2019-05-09T05:04:40.725Z,54.60
2019-05-09T05:07:10.550Z,53.10
2019-05-09T05:09:40.164Z,52.90
2019-05-09T05:12:10.277Z,52.00
2019-05-09T05:14:40.126Z,52.50
2019-05-09T05:17:11.362Z,51.90
2019-05-09T05:19:41.055Z,52.60
2019-05-09T05:22:38.542Z,52.30
2019-05-09T05:25:09.251Z,52.60
2019-05-09T05:27:38.977Z,52.30
2019-05-09T05:30:09.029Z,53.20
2019-05-09T05:32:58.083Z,53.50
2019-05-09T05:35:58.558Z,52.60
2019-05-09T05:38:28.109Z,53.50
2019-05-09T05:40:57.910Z,53.40
2019-05-09T05:43:40.564Z,52.40
2019-05-09T05:46:18.925Z,53.20
2019-05-09T05:48:49.095Z,52.50
2019-05-09T05:51:19.016Z,51.80
2019-05-09T05:53:48.624Z,50.60
2019-05-09T05:56:18.382Z,50.70
2019-05-09T05:58:49.000Z,51.00
2019-05-09T06:01:18.994Z,50.40
2019-05-09T06:03:48.653Z,50.00
2019-05-09T06:06:18.263Z,49.70
2019-05-09T06:08:48.512Z,49.80
2019-05-09T06:11:18.442Z,50.10
2019-05-09T06:13:57.281Z,49.30
2019-05-09T06:16:22.259Z,49.00
2019-05-09T06:18:51.480Z,48.70
2019-05-09T06:21:21.112Z,48.90
2019-05-09T06:23:50.744Z,48.10
2019-05-09T06:26:20.342Z,47.40
2019-05-09T06:28:50.278Z,45.30
2019-05-09T06:31:20.169Z,44.80
2019-05-09T06:33:53.523Z,44.20
2019-05-09T06:36:21.026Z,44.10
2019-05-09T06:38:50.932Z,43.00
2019-05-09T06:41:20.503Z,43.10
2019-05-09T06:44:10.273Z,42.20
2019-05-09T06:46:43.009Z,41.00
2019-05-09T06:49:27.125Z,41.00
2019-05-09T06:51:47.672Z,39.80
2019-05-09T06:54:17.572Z,39.20
2019-05-09T06:56:47.616Z,37.60
2019-05-09T06:59:19.131Z,38.50
2019-05-09T07:01:52.576Z,38.20
2019-05-09T07:04:29.524Z,38.50
2019-05-09T07:07:09.748Z,37.90
2019-05-09T07:09:48.507Z,38.00
2019-05-09T07:12:18.230Z,37.20
2019-05-09T07:14:48.755Z,38.80
2019-05-09T07:17:18.803Z,37.60
2019-05-09T07:19:49.001Z,38.60
2019-05-09T07:22:39.254Z,37.60
2019-05-09T07:25:12.580Z,36.90
2019-05-09T07:27:42.195Z,36.50
2019-05-09T07:30:22.455Z,36.10
2019-05-09T07:33:01.199Z,33.60
2019-05-09T07:35:30.841Z,33.40
2019-05-09T07:38:00.434Z,31.40
2019-05-09T07:40:30.834Z,30.50
2019-05-09T07:43:00.534Z,29.90
2019-05-09T07:45:30.166Z,27.90
2019-05-09T07:48:00.104Z,28.40
2019-05-09T07:50:29.679Z,28.90
2019-05-09T07:52:59.536Z,29.30
2019-05-09T07:55:29.070Z,27.40
2019-05-09T07:57:59.285Z,26.90
2019-05-09T08:00:33.533Z,28.30
2019-05-09T08:03:03.239Z,26.70
2019-05-09T08:05:33.510Z,27.20
2019-05-09T08:08:04.881Z,26.60
2019-05-09T08:10:34.708Z,25.60
2019-05-09T08:13:08.000Z,24.40
2019-05-09T08:15:38.259Z,22.70
2019-05-09T08:18:08.649Z,21.00
2019-05-09T08:20:40.601Z,21.60
2019-05-09T08:23:09.537Z,20.10
2019-05-09T08:25:39.535Z,20.20
2019-05-09T08:28:09.358Z,18.80
2019-05-09T08:30:40.428Z,18.20
2019-05-09T08:33:10.524Z,18.30
2019-05-09T08:35:40.064Z,18.40
2019-05-09T08:38:09.692Z,18.00
2019-05-09T08:40:39.398Z,17.30
2019-05-09T08:43:09.260Z,17.10
2019-05-09T08:45:38.888Z,17.30
2019-05-09T08:48:09.401Z,17.20
2019-05-09T08:50:43.696Z,17.80
2019-05-09T08:53:13.271Z,17.40
2019-05-09T08:55:42.879Z,17.10
2019-05-09T08:58:12.434Z,17.00
2019-05-09T09:00:42.351Z,16.10
2019-05-09T09:03:11.915Z,16.20
2019-05-09T09:05:43.422Z,15.20
2019-05-09T09:08:12.783Z,15.90
2019-05-09T09:10:42.624Z,16.30
2019-05-09T09:13:12.228Z,17.80
2019-05-09T09:16:11.794Z,16.10
2019-05-09T09:18:14.055Z,16.20
2019-05-09T09:20:43.871Z,17.30
2019-05-09T09:23:13.517Z,17.70
2019-05-09T09:25:43.155Z,18.80
2019-05-09T09:28:13.029Z,18.80
2019-05-09T09:30:42.574Z,19.40
2019-05-09T09:33:13.998Z,19.70
2019-05-09T09:35:43.680Z,19.70
2019-05-09T09:38:13.313Z,19.60
2019-05-09T09:40:42.890Z,19.90
2019-05-09T09:43:12.549Z,19.40
2019-05-09T09:45:42.130Z,19.70
2019-05-09T09:48:11.703Z,20.20
2019-05-09T09:50:41.345Z,19.60
2019-05-09T09:53:10.987Z,19.40
2019-05-09T09:55:40.999Z,20.00
2019-05-09T09:58:10.571Z,20.50
2019-05-09T10:01:02.955Z,19.10
2019-05-09T10:03:30.959Z,17.90
2019-05-09T10:06:00.877Z,16.70
2019-05-09T10:08:30.716Z,16.30
2019-05-09T10:11:00.347Z,15.90
2019-05-09T10:13:30.196Z,16.40
2019-05-09T10:16:25.435Z,16.00
2019-05-09T10:19:02.640Z,16.50
2019-05-09T10:21:38.329Z,16.30
2019-05-09T10:24:08.162Z,16.70
2019-05-09T10:26:41.392Z,16.20
2019-05-09T10:29:11.012Z,16.10
2019-05-09T10:31:40.655Z,16.30
2019-05-09T10:34:11.125Z,15.30
2019-05-09T10:36:40.893Z,15.10
2019-05-09T10:39:10.418Z,15.10
2019-05-09T10:41:39.973Z,15.20
2019-05-09T10:44:29.420Z,14.60
2019-05-09T10:47:21.316Z,14.20
2019-05-09T10:49:51.183Z,13.20
2019-05-09T10:52:21.021Z,13.10
2019-05-09T10:54:50.956Z,13.90
2019-05-09T10:57:20.600Z,13.90
2019-05-09T10:59:50.232Z,13.00
2019-05-09T11:02:19.768Z,13.10
2019-05-09T11:04:49.415Z,13.10
2019-05-09T11:07:18.965Z,13.30
2019-05-09T11:09:48.577Z,12.70
2019-05-09T11:12:18.831Z,12.50
2019-05-09T11:14:48.546Z,13.00
2019-05-09T11:17:21.657Z,13.10
2019-05-09T11:19:49.417Z,12.60
2019-05-09T11:22:19.014Z,12.00
2019-05-09T11:24:51.031Z,12.10
2019-05-09T11:27:19.841Z,12.60
2019-05-09T11:29:50.047Z,12.70
2019-05-09T11:32:19.679Z,12.50
2019-05-09T11:34:49.263Z,12.40
2019-05-09T11:37:22.123Z,11.90
2019-05-09T11:39:50.047Z,11.90
2019-05-09T11:42:19.687Z,11.40
2019-05-09T11:44:49.538Z,9.10
2019-05-09T11:47:32.407Z,9.40
2019-05-09T11:49:50.391Z,9.00
2019-05-09T11:52:20.023Z,9.30
2019-05-09T11:54:49.586Z,9.30
2019-05-09T11:57:19.326Z,10.10
2019-05-09T11:59:48.875Z,10.30
2019-05-09T12:02:20.482Z,11.00
2019-05-09T12:04:50.109Z,10.90
2019-05-09T12:07:19.681Z,11.30
2019-05-09T12:09:49.305Z,10.40
2019-05-09T12:12:19.628Z,10.00
2019-05-09T12:14:49.319Z,9.90
2019-05-09T12:17:19.809Z,9.40
2019-05-09T12:19:49.628Z,8.80
2019-05-09T12:22:19.424Z,8.70
2019-05-09T12:24:49.224Z,9.30
2019-05-09T12:27:19.054Z,9.80
2019-05-09T12:29:49.003Z,9.70
2019-05-09T12:32:18.934Z,10.20
2019-05-09T12:34:48.547Z,10.30
2019-05-09T12:37:18.377Z,10.00
2019-05-09T12:39:48.541Z,10.60
2019-05-09T12:42:18.802Z,10.40
2019-05-09T12:44:49.616Z,10.00
2019-05-09T12:47:19.730Z,10.10
2019-05-09T12:49:49.363Z,9.80
2019-05-09T12:52:18.965Z,10.30
2019-05-09T12:54:48.619Z,9.80
2019-05-09T12:57:19.177Z,9.50
2019-05-09T12:59:52.605Z,10.20
2019-05-09T13:02:20.489Z,10.20
2019-05-09T13:04:50.129Z,10.10
2019-05-09T13:07:19.790Z,11.00
2019-05-09T13:09:52.733Z,11.40
2019-05-09T13:12:20.994Z,11.60
2019-05-09T13:14:50.625Z,11.70
2019-05-09T13:17:34.113Z,11.70
2019-05-09T13:20:04.831Z,12.30
2019-05-09T13:22:34.404Z,11.80
2019-05-09T13:25:04.389Z,11.80
2019-05-09T13:27:33.973Z,11.80
2019-05-09T13:30:04.139Z,11.80
2019-05-09T13:32:33.703Z,11.80
2019-05-09T13:35:03.396Z,11.90
2019-05-09T13:37:33.182Z,11.90
2019-05-09T13:40:03.003Z,11.80
2019-05-09T13:42:32.656Z,12.20
2019-05-09T13:45:02.231Z,12.10
2019-05-09T13:47:32.060Z,12.80
2019-05-09T13:50:01.741Z,12.60
2019-05-09T13:52:31.345Z,12.80
2019-05-09T13:55:01.200Z,12.20
2019-05-09T13:57:30.822Z,12.30
2019-05-09T14:00:00.363Z,12.30
2019-05-09T14:02:30.275Z,12.70
2019-05-09T14:05:00.151Z,12.00
2019-05-09T14:07:29.964Z,11.90
2019-05-09T14:09:59.852Z,12.20
2019-05-09T14:12:29.466Z,11.80
2019-05-09T14:14:59.072Z,11.60
2019-05-09T14:17:45.235Z,12.10
2019-05-09T14:20:00.155Z,13.50
2019-05-09T14:22:30.089Z,13.40
2019-05-09T14:25:00.002Z,13.40
2019-05-09T14:27:29.708Z,13.90
2019-05-09T14:29:59.719Z,14.10
2019-05-09T14:32:31.179Z,14.30
2019-05-09T14:35:01.035Z,14.60
2019-05-09T14:37:30.620Z,14.40
2019-05-09T14:40:04.100Z,15.30
2019-05-09T14:42:31.719Z,15.60
2019-05-09T14:45:01.635Z,16.00
2019-05-09T14:47:31.231Z,15.80
2019-05-09T14:50:00.848Z,15.90
2019-05-09T14:52:30.711Z,16.30
2019-05-09T14:55:00.367Z,16.10
2019-05-09T14:57:30.238Z,15.90
2019-05-09T15:00:00.054Z,16.50
2019-05-09T15:02:30.014Z,15.90
2019-05-09T15:05:09.486Z,15.30
2019-05-09T15:07:39.071Z,15.10
2019-05-09T15:10:09.162Z,15.60
2019-05-09T15:12:39.257Z,15.90
2019-05-09T15:15:09.833Z,16.40
2019-05-09T15:17:39.834Z,16.90
2019-05-09T15:20:09.595Z,16.80
2019-05-09T15:22:39.454Z,17.30
2019-05-09T15:25:09.561Z,17.10
2019-05-09T15:27:39.445Z,17.40
2019-05-09T15:30:09.285Z,17.60
2019-05-09T15:32:39.324Z,17.60
2019-05-09T15:35:09.322Z,17.50
2019-05-09T15:37:38.995Z,18.20
2019-05-09T15:40:09.031Z,18.50
2019-05-09T15:42:39.133Z,18.40
2019-05-09T15:45:09.276Z,18.10
2019-05-09T15:47:38.887Z,18.40
2019-05-09T15:50:18.873Z,18.50
2019-05-09T15:52:40.720Z,18.10
2019-05-09T15:55:10.297Z,18.50
2019-05-09T15:57:40.200Z,18.90
2019-05-09T16:00:10.889Z,19.00
2019-05-09T16:02:40.709Z,19.00
2019-05-09T16:05:10.897Z,19.00
2019-05-09T16:07:40.962Z,19.50
2019-05-09T16:10:10.807Z,19.80
2019-05-09T16:12:40.445Z,19.60
2019-05-09T16:15:10.387Z,19.70
2019-05-09T16:17:39.996Z,19.80
2019-05-09T16:20:09.884Z,20.20
2019-05-09T16:22:39.720Z,20.50
2019-05-09T16:25:09.693Z,21.10
2019-05-09T16:27:39.251Z,20.40
2019-05-09T16:30:09.288Z,20.20
2019-05-09T16:32:38.894Z,20.90
2019-05-09T16:35:08.609Z,20.50
2019-05-09T16:37:57.431Z,20.60
2019-05-09T16:40:09.963Z,21.50
2019-05-09T16:42:39.895Z,21.30
2019-05-09T16:45:09.921Z,21.20
2019-05-09T16:47:39.547Z,21.90
2019-05-09T16:50:12.164Z,21.30
2019-05-09T16:52:43.562Z,21.50
2019-05-09T16:55:18.138Z,21.80
2019-05-09T16:57:47.960Z,22.40
2019-05-09T17:00:31.539Z,21.60
2019-05-09T17:03:01.380Z,22.50
2019-05-09T17:05:30.968Z,22.30
2019-05-09T17:08:00.862Z,21.70
2019-05-09T17:10:30.463Z,22.00
2019-05-09T17:13:00.206Z,21.70
2019-05-09T17:15:30.381Z,21.40
2019-05-09T17:18:00.004Z,22.40
2019-05-09T17:20:48.639Z,22.70
2019-05-09T17:23:21.030Z,23.10
2019-05-09T17:25:50.649Z,23.50
2019-05-09T17:28:20.304Z,23.80
2019-05-09T17:30:49.942Z,24.50
2019-05-09T17:33:19.629Z,24.50
2019-05-09T17:35:49.458Z,24.90
2019-05-09T17:38:19.131Z,25.10
2019-05-09T17:40:48.805Z,25.00
2019-05-09T17:43:18.519Z,24.80
2019-05-09T17:45:48.197Z,24.90
2019-05-09T17:48:18.455Z,25.40
2019-05-09T17:50:48.119Z,25.40
2019-05-09T17:53:18.340Z,25.50
2019-05-09T17:55:48.196Z,25.40
2019-05-09T17:58:27.106Z,25.80
2019-05-09T18:00:49.342Z,26.00
2019-05-09T18:03:18.982Z,26.10
2019-05-09T18:05:48.785Z,26.50
2019-05-09T18:08:18.943Z,27.20
2019-05-09T18:10:48.771Z,26.40
2019-05-09T18:13:23.835Z,26.10
2019-05-09T18:15:50.146Z,26.30
2019-05-09T18:18:19.775Z,26.40
2019-05-09T18:20:49.411Z,26.20
2019-05-09T18:23:19.009Z,25.50
2019-05-09T18:25:49.399Z,25.50
2019-05-09T18:28:19.214Z,25.40
2019-05-09T18:30:49.086Z,25.40
2019-05-09T18:33:30.199Z,25.30
2019-05-09T18:35:59.810Z,25.10
2019-05-09T18:38:32.380Z,25.50
2019-05-09T18:41:02.407Z,26.50
2019-05-09T18:43:32.395Z,26.80
2019-05-09T18:46:02.344Z,28.30
2019-05-09T18:48:31.971Z,28.80
2019-05-09T18:51:01.811Z,28.50
2019-05-09T18:53:31.764Z,29.30
2019-05-09T18:56:01.427Z,28.60
2019-05-09T18:58:31.056Z,29.00
2019-05-09T19:01:00.580Z,29.20
2019-05-09T19:03:30.462Z,29.60
2019-05-09T19:06:00.106Z,30.20
2019-05-09T19:08:29.725Z,30.90
2019-05-09T19:10:59.560Z,30.50
2019-05-09T19:13:29.161Z,30.70
2019-05-09T19:16:05.776Z,31.20
2019-05-09T19:18:54.272Z,31.60
2019-05-09T19:21:27.315Z,32.40
2019-05-09T19:23:57.000Z,33.40
2019-05-09T19:26:39.181Z,34.60
2019-05-09T19:29:09.968Z,35.80
2019-05-09T19:31:39.885Z,35.40
2019-05-09T19:34:09.548Z,36.20
2019-05-09T19:36:39.195Z,36.60
2019-05-09T19:39:10.372Z,37.10
2019-05-09T19:41:40.164Z,36.80
2019-05-09T19:44:09.793Z,37.30
2019-05-09T19:46:39.639Z,37.00
2019-05-09T19:49:09.430Z,37.00
2019-05-09T19:51:38.987Z,37.70
2019-05-09T19:54:08.726Z,38.10
2019-05-09T19:56:38.253Z,38.20
2019-05-09T19:59:08.576Z,37.90
2019-05-09T20:01:38.331Z,37.90
2019-05-09T20:04:08.016Z,38.00
2019-05-09T20:06:37.575Z,37.60
2019-05-09T20:09:12.534Z,37.20
2019-05-09T20:12:00.797Z,36.60
2019-05-09T20:14:42.090Z,37.10
2019-05-09T20:17:11.716Z,37.10
2019-05-09T20:19:41.333Z,37.30
2019-05-09T20:22:11.181Z,37.20
2019-05-09T20:24:40.775Z,36.70
2019-05-09T20:27:10.401Z,36.90
2019-05-09T20:29:39.978Z,37.20
2019-05-09T20:32:09.683Z,37.80
2019-05-09T20:34:39.255Z,37.90
2019-05-09T20:37:08.879Z,38.20
2019-05-09T20:39:38.646Z,37.80
2019-05-09T20:42:08.476Z,38.40
2019-05-09T20:44:38.241Z,38.50
2019-05-09T20:47:08.020Z,37.80
2019-05-09T20:49:37.784Z,38.90
2019-05-09T20:52:07.799Z,39.00
2019-05-09T20:54:37.861Z,38.70
2019-05-09T20:57:07.865Z,39.30
2019-05-09T20:59:37.731Z,38.60
2019-05-09T21:02:07.527Z,39.20
2019-05-09T21:04:37.255Z,39.50
2019-05-09T21:07:07.105Z,40.20
2019-05-09T21:09:37.148Z,39.90
2019-05-09T21:12:06.948Z,40.40
2019-05-09T21:14:36.746Z,41.90
2019-05-09T21:17:06.558Z,41.00
2019-05-09T21:19:37.355Z,40.50
2019-05-09T21:22:07.359Z,39.90
2019-05-09T21:24:37.248Z,39.40
2019-05-09T21:27:07.742Z,39.30
2019-05-09T21:29:37.556Z,39.30
2019-05-09T21:32:07.833Z,39.80
2019-05-09T21:34:37.471Z,39.70
2019-05-09T21:37:08.224Z,39.30
2019-05-09T21:39:37.916Z,39.40
2019-05-09T21:42:07.558Z,39.80
2019-05-09T21:44:37.407Z,39.80
2019-05-09T21:47:07.022Z,40.20
2019-05-09T21:49:36.668Z,40.00
2019-05-09T21:52:06.255Z,39.80
2019-05-09T21:54:35.892Z,39.40
2019-05-09T21:57:05.462Z,39.30
2019-05-09T21:59:35.340Z,39.40
2019-05-09T22:02:05.251Z,39.30
2019-05-09T22:04:34.837Z,39.60
2019-05-09T22:07:04.559Z,39.50
2019-05-09T22:09:34.192Z,39.40
2019-05-09T22:12:04.089Z,39.20
2019-05-09T22:14:33.672Z,39.50
2019-05-09T22:17:09.377Z,39.50
2019-05-09T22:19:38.981Z,39.40
2019-05-09T22:22:08.549Z,39.50
2019-05-09T22:24:38.170Z,39.10
2019-05-09T22:27:07.741Z,39.40
2019-05-09T22:29:37.362Z,38.90
2019-05-09T22:32:06.932Z,39.20
2019-05-09T22:34:36.516Z,39.90
2019-05-09T22:37:06.120Z,39.80
2019-05-09T22:39:35.742Z,40.90
2019-05-09T22:42:05.328Z,40.60
2019-05-09T22:44:35.432Z,41.70
2019-05-09T22:47:04.960Z,42.10
2019-05-09T22:49:34.575Z,44.10
2019-05-09T22:52:04.430Z,46.00
2019-05-09T22:54:34.133Z,49.30
2019-05-09T22:57:03.716Z,49.70
2019-05-09T22:59:33.547Z,51.80
2019-05-09T23:02:06.702Z,54.70
2019-05-09T23:04:34.363Z,58.60
2019-05-09T23:07:04.313Z,60.00
2019-05-09T23:09:33.994Z,63.70
2019-05-09T23:12:03.624Z,66.10
2019-05-09T23:14:33.464Z,67.90
2019-05-09T23:17:03.191Z,68.80
2019-05-09T23:19:32.762Z,69.40
2019-05-09T23:22:02.371Z,69.80
2019-05-09T23:24:33.420Z,70.10
2019-05-09T23:27:08.433Z,72.20
2019-05-09T23:29:38.073Z,73.70
2019-05-09T23:32:28.935Z,76.30
2019-05-09T23:34:58.800Z,76.50
2019-05-09T23:37:28.647Z,76.90
2019-05-09T23:39:58.229Z,76.70
2019-05-09T23:42:27.812Z,76.70
2019-05-09T23:44:57.382Z,76.30
2019-05-09T23:47:26.976Z,75.10
2019-05-09T23:49:56.586Z,75.70
2019-05-09T23:52:26.635Z,75.70
2019-05-09T23:55:13.799Z,75.60
2019-05-09T23:58:00.911Z,74.60
